sensor_id;sensor_type;location;lat;lon;timestamp;pressure;altitude;pressure_sealevel;temperature;humidity
77543;BME280;66669;52.100;5.104;2023-02-01T00:00:13;101912.66;;;25.29;29.50
77543;BME280;66669;52.100;5.104;2023-02-01T00:02:38;101915.47;;;25.29;29.57
77543;BME280;66669;52.100;5.104;2023-02-01T00:05:10;101908.66;;;25.30;29.64
77543;BME280;66669;52.100;5.104;2023-02-01T00:07:36;101907.50;;;25.35;29.85
77543;BME280;66669;52.100;5.104;2023-02-01T00:10:03;101916.00;;;25.42;29.75
77543;BME280;66669;52.100;5.104;2023-02-01T00:12:30;101914.84;;;25.47;30.10
77543;BME280;66669;52.100;5.104;2023-02-01T00:14:55;101916.91;;;25.53;30.33
77543;BME280;66669;52.100;5.104;2023-02-01T00:17:20;101909.44;;;25.64;29.81
77543;BME280;66669;52.100;5.104;2023-02-01T00:19:46;101903.41;;;25.66;29.29
77543;BME280;66669;52.100;5.104;2023-02-01T00:22:11;101901.00;;;25.64;29.08
77543;BME280;66669;52.100;5.104;2023-02-01T00:24:36;101896.94;;;25.58;29.09
77543;BME280;66669;52.100;5.104;2023-02-01T00:27:02;101901.75;;;25.58;29.04
77543;BME280;66669;52.100;5.104;2023-02-01T00:29:27;101907.72;;;25.56;28.86
77543;BME280;66669;52.100;5.104;2023-02-01T00:31:52;101908.13;;;25.55;28.82
77543;BME280;66669;52.100;5.104;2023-02-01T00:34:19;101900.06;;;25.53;28.89
77543;BME280;66669;52.100;5.104;2023-02-01T00:36:44;101892.84;;;25.52;28.83
77543;BME280;66669;52.100;5.104;2023-02-01T00:39:10;101901.28;;;25.52;28.70
77543;BME280;66669;52.100;5.104;2023-02-01T00:41:36;101900.88;;;25.50;28.55
77543;BME280;66669;52.100;5.104;2023-02-01T00:44:02;101898.81;;;25.47;28.57
77543;BME280;66669;52.100;5.104;2023-02-01T00:46:28;101913.25;;;25.46;28.38
77543;BME280;66669;52.100;5.104;2023-02-01T00:48:55;101899.59;;;25.44;28.49
77543;BME280;66669;52.100;5.104;2023-02-01T00:51:24;101894.75;;;25.41;28.41
77543;BME280;66669;52.100;5.104;2023-02-01T00:53:50;101902.75;;;25.39;28.48
77543;BME280;66669;52.100;5.104;2023-02-01T00:56:16;101895.09;;;25.36;28.56
77543;BME280;66669;52.100;5.104;2023-02-01T00:58:41;101885.81;;;25.32;28.56
77543;BME280;66669;52.100;5.104;2023-02-01T01:01:17;101891.00;;;25.30;28.42
77543;BME280;66669;52.100;5.104;2023-02-01T01:03:46;101885.81;;;25.28;28.38
77543;BME280;66669;52.100;5.104;2023-02-01T01:06:16;101886.97;;;25.27;28.39
77543;BME280;66669;52.100;5.104;2023-02-01T01:08:42;101892.16;;;25.25;28.41
77543;BME280;66669;52.100;5.104;2023-02-01T01:11:12;101888.94;;;25.23;28.39
77543;BME280;66669;52.100;5.104;2023-02-01T01:13:38;101872.47;;;25.22;28.44
77543;BME280;66669;52.100;5.104;2023-02-01T01:16:05;101877.66;;;25.20;28.45
77543;BME280;66669;52.100;5.104;2023-02-01T01:21:16;101878.81;;;25.15;28.38
77543;BME280;66669;52.100;5.104;2023-02-01T01:23:43;101884.81;;;25.13;28.25
77543;BME280;66669;52.100;5.104;2023-02-01T01:26:12;101876.00;;;25.11;28.45
77543;BME280;66669;52.100;5.104;2023-02-01T01:28:38;101891.97;;;25.11;28.36
77543;BME280;66669;52.100;5.104;2023-02-01T01:31:07;101882.34;;;25.08;28.42
77543;BME280;66669;52.100;5.104;2023-02-01T01:33:33;101883.88;;;25.06;28.37
77543;BME280;66669;52.100;5.104;2023-02-01T01:35:58;101876.66;;;25.05;28.34
77543;BME280;66669;52.100;5.104;2023-02-01T01:38:24;101879.09;;;25.06;28.43
77543;BME280;66669;52.100;5.104;2023-02-01T01:41:13;101885.47;;;25.03;28.39
77543;BME280;66669;52.100;5.104;2023-02-01T01:44:00;101889.09;;;25.04;28.38
77543;BME280;66669;52.100;5.104;2023-02-01T01:46:26;101883.44;;;25.00;28.41
77543;BME280;66669;52.100;5.104;2023-02-01T01:48:58;101877.00;;;25.00;28.38
77543;BME280;66669;52.100;5.104;2023-02-01T01:51:28;101874.16;;;24.96;28.36
77543;BME280;66669;52.100;5.104;2023-02-01T01:54:33;101867.75;;;24.96;28.21
77543;BME280;66669;52.100;5.104;2023-02-01T01:57:20;101859.69;;;24.94;28.38
77543;BME280;66669;52.100;5.104;2023-02-01T02:00:08;101859.28;;;24.92;28.44
77543;BME280;66669;52.100;5.104;2023-02-01T02:02:36;101863.28;;;24.91;28.30
77543;BME280;66669;52.100;5.104;2023-02-01T02:05:02;101865.22;;;24.87;28.43
77543;BME280;66669;52.100;5.104;2023-02-01T02:07:47;101858.44;;;24.88;28.37
77543;BME280;66669;52.100;5.104;2023-02-01T02:10:15;101859.63;;;24.87;28.42
77543;BME280;66669;52.100;5.104;2023-02-01T02:12:42;101857.63;;;24.87;28.23
77543;BME280;66669;52.100;5.104;2023-02-01T02:15:11;101851.56;;;24.85;28.41
77543;BME280;66669;52.100;5.104;2023-02-01T02:17:50;101850.78;;;24.85;28.43
77543;BME280;66669;52.100;5.104;2023-02-01T02:23:47;101845.16;;;24.85;28.36
77543;BME280;66669;52.100;5.104;2023-02-01T02:26:46;101837.16;;;24.83;28.35
77543;BME280;66669;52.100;5.104;2023-02-01T02:29:42;101823.13;;;24.83;28.30
77543;BME280;66669;52.100;5.104;2023-02-01T02:32:28;101830.28;;;24.81;28.32
77543;BME280;66669;52.100;5.104;2023-02-01T02:37:36;101817.06;;;24.78;28.37
77543;BME280;66669;52.100;5.104;2023-02-01T02:40:35;101814.25;;;24.78;28.43
77543;BME280;66669;52.100;5.104;2023-02-01T02:43:20;101814.63;;;24.76;28.32
77543;BME280;66669;52.100;5.104;2023-02-01T02:46:11;101826.22;;;24.75;28.39
77543;BME280;66669;52.100;5.104;2023-02-01T02:51:49;101836.63;;;24.74;28.39
77543;BME280;66669;52.100;5.104;2023-02-01T02:54:42;101831.78;;;24.71;28.31
77543;BME280;66669;52.100;5.104;2023-02-01T02:57:20;101820.13;;;24.69;28.31
77543;BME280;66669;52.100;5.104;2023-02-01T03:00:10;101799.69;;;24.69;28.33
77543;BME280;66669;52.100;5.104;2023-02-01T03:02:55;101790.50;;;24.68;28.29
77543;BME280;66669;52.100;5.104;2023-02-01T03:05:43;101792.50;;;24.68;28.32
77543;BME280;66669;52.100;5.104;2023-02-01T03:08:17;101802.91;;;24.67;28.24
77543;BME280;66669;52.100;5.104;2023-02-01T03:13:41;101812.88;;;24.64;28.19
77543;BME280;66669;52.100;5.104;2023-02-01T03:22:01;101790.78;;;24.59;28.38
77543;BME280;66669;52.100;5.104;2023-02-01T03:24:33;101790.38;;;24.57;28.40
77543;BME280;66669;52.100;5.104;2023-02-01T03:27:22;101794.78;;;24.58;28.36
77543;BME280;66669;52.100;5.104;2023-02-01T03:32:14;101800.34;;;24.55;28.40
77543;BME280;66669;52.100;5.104;2023-02-01T03:34:40;101793.47;;;24.52;28.31
77543;BME280;66669;52.100;5.104;2023-02-01T03:37:09;101804.69;;;24.52;28.39
77543;BME280;66669;52.100;5.104;2023-02-01T03:40:05;101793.88;;;24.51;28.27
77543;BME280;66669;52.100;5.104;2023-02-01T03:42:37;101786.66;;;24.50;28.14
77543;BME280;66669;52.100;5.104;2023-02-01T03:47:43;101794.63;;;24.48;28.42
77543;BME280;66669;52.100;5.104;2023-02-01T03:50:13;101804.63;;;24.45;28.33
77543;BME280;66669;52.100;5.104;2023-02-01T03:52:47;101801.81;;;24.45;28.44
77543;BME280;66669;52.100;5.104;2023-02-01T03:55:17;101823.78;;;24.43;28.33
77543;BME280;66669;52.100;5.104;2023-02-01T03:57:51;101809.41;;;24.45;28.31
77543;BME280;66669;52.100;5.104;2023-02-01T04:00:20;101804.97;;;24.44;28.49
77543;BME280;66669;52.100;5.104;2023-02-01T04:02:47;101808.19;;;24.42;28.38
77543;BME280;66669;52.100;5.104;2023-02-01T04:05:12;101809.38;;;24.41;28.52
77543;BME280;66669;52.100;5.104;2023-02-01T04:07:38;101799.78;;;24.42;28.30
77543;BME280;66669;52.100;5.104;2023-02-01T04:10:03;101799.34;;;24.40;28.41
77543;BME280;66669;52.100;5.104;2023-02-01T04:12:29;101803.72;;;24.37;28.35
77543;BME280;66669;52.100;5.104;2023-02-01T04:14:54;101804.50;;;24.38;28.38
77543;BME280;66669;52.100;5.104;2023-02-01T04:17:20;101814.09;;;24.37;28.33
77543;BME280;66669;52.100;5.104;2023-02-01T04:19:45;101808.03;;;24.35;28.41
77543;BME280;66669;52.100;5.104;2023-02-01T04:22:10;101800.44;;;24.35;28.34
77543;BME280;66669;52.100;5.104;2023-02-01T04:24:37;101804.06;;;24.36;28.36
77543;BME280;66669;52.100;5.104;2023-02-01T04:27:02;101799.28;;;24.36;28.41
77543;BME280;66669;52.100;5.104;2023-02-01T04:29:28;101815.63;;;24.34;28.42
77543;BME280;66669;52.100;5.104;2023-02-01T04:31:53;101794.03;;;24.35;28.23
77543;BME280;66669;52.100;5.104;2023-02-01T04:34:19;101795.22;;;24.34;28.34
77543;BME280;66669;52.100;5.104;2023-02-01T04:36:44;101811.63;;;24.32;28.31
77543;BME280;66669;52.100;5.104;2023-02-01T04:39:09;101816.81;;;24.33;28.45
77543;BME280;66669;52.100;5.104;2023-02-01T04:41:35;101806.00;;;24.32;28.42
77543;BME280;66669;52.100;5.104;2023-02-01T04:44:00;101807.56;;;24.29;28.33
77543;BME280;66669;52.100;5.104;2023-02-01T04:46:26;101803.16;;;24.28;28.42
77543;BME280;66669;52.100;5.104;2023-02-01T04:48:51;101802.34;;;24.28;28.51
77543;BME280;66669;52.100;5.104;2023-02-01T04:51:16;101805.50;;;24.26;28.53
77543;BME280;66669;52.100;5.104;2023-02-01T04:53:43;101799.91;;;24.26;28.59
77543;BME280;66669;52.100;5.104;2023-02-01T04:56:08;101800.31;;;24.25;28.54
77543;BME280;66669;52.100;5.104;2023-02-01T04:58:34;101809.13;;;24.27;28.35
77543;BME280;66669;52.100;5.104;2023-02-01T05:01:02;101793.50;;;24.26;28.56
77543;BME280;66669;52.100;5.104;2023-02-01T05:03:30;101777.09;;;24.24;28.56
77543;BME280;66669;52.100;5.104;2023-02-01T05:05:55;101781.88;;;24.24;28.51
77543;BME280;66669;52.100;5.104;2023-02-01T05:08:20;101775.84;;;24.22;28.53
77543;BME280;66669;52.100;5.104;2023-02-01T05:10:47;101788.25;;;24.21;28.42
77543;BME280;66669;52.100;5.104;2023-02-01T05:13:13;101794.66;;;24.21;28.54
77543;BME280;66669;52.100;5.104;2023-02-01T05:15:56;101776.22;;;24.20;28.50
77543;BME280;66669;52.100;5.104;2023-02-01T05:18:22;101767.81;;;24.20;28.39
77543;BME280;66669;52.100;5.104;2023-02-01T05:20:47;101793.03;;;24.20;28.38
77543;BME280;66669;52.100;5.104;2023-02-01T05:23:12;101799.84;;;24.19;28.45
77543;BME280;66669;52.100;5.104;2023-02-01T05:25:37;101807.41;;;24.19;28.42
77543;BME280;66669;52.100;5.104;2023-02-01T05:28:03;101812.66;;;24.20;28.61
77543;BME280;66669;52.100;5.104;2023-02-01T05:30:28;101814.59;;;24.16;28.75
77543;BME280;66669;52.100;5.104;2023-02-01T05:32:54;101810.13;;;24.11;28.86
77543;BME280;66669;52.100;5.104;2023-02-01T05:35:20;101810.88;;;24.08;28.68
77543;BME280;66669;52.100;5.104;2023-02-01T05:37:45;101814.00;;;24.03;28.83
77543;BME280;66669;52.100;5.104;2023-02-01T05:40:11;101824.75;;;24.01;28.84
77543;BME280;66669;52.100;5.104;2023-02-01T05:42:36;101813.53;;;24.01;28.86
77543;BME280;66669;52.100;5.104;2023-02-01T05:45:02;101810.31;;;23.99;28.67
77543;BME280;66669;52.100;5.104;2023-02-01T05:47:30;101807.53;;;23.99;28.71
77543;BME280;66669;52.100;5.104;2023-02-01T05:49:55;101808.75;;;24.02;28.54
77543;BME280;66669;52.100;5.104;2023-02-01T05:52:21;101804.34;;;24.01;28.72
77543;BME280;66669;52.100;5.104;2023-02-01T05:54:46;101803.94;;;23.99;28.65
77543;BME280;66669;52.100;5.104;2023-02-01T05:57:12;101808.34;;;24.00;28.64
77543;BME280;66669;52.100;5.104;2023-02-01T05:59:38;101790.72;;;23.99;28.67
77543;BME280;66669;52.100;5.104;2023-02-01T06:02:09;101799.13;;;23.99;28.67
77543;BME280;66669;52.100;5.104;2023-02-01T06:04:35;101799.94;;;24.00;28.60
77543;BME280;66669;52.100;5.104;2023-02-01T06:07:00;101801.94;;;23.99;28.52
77543;BME280;66669;52.100;5.104;2023-02-01T06:09:26;101806.34;;;24.00;28.58
77543;BME280;66669;52.100;5.104;2023-02-01T06:11:51;101798.31;;;23.99;28.57
77543;BME280;66669;52.100;5.104;2023-02-01T06:14:16;101802.31;;;23.98;28.66
77543;BME280;66669;52.100;5.104;2023-02-01T06:16:42;101815.13;;;23.99;28.71
77543;BME280;66669;52.100;5.104;2023-02-01T06:19:07;101809.88;;;23.97;28.73
77543;BME280;66669;52.100;5.104;2023-02-01T06:21:35;101814.69;;;23.97;28.67
77543;BME280;66669;52.100;5.104;2023-02-01T06:24:00;101811.06;;;23.96;28.66
77543;BME280;66669;52.100;5.104;2023-02-01T06:26:26;101813.88;;;23.96;28.59
77543;BME280;66669;52.100;5.104;2023-02-01T06:28:53;101823.06;;;23.97;28.75
77543;BME280;66669;52.100;5.104;2023-02-01T06:31:20;101824.66;;;23.94;28.76
77543;BME280;66669;52.100;5.104;2023-02-01T06:33:45;101822.66;;;23.95;28.70
77543;BME280;66669;52.100;5.104;2023-02-01T06:36:12;101823.84;;;23.94;28.78
77543;BME280;66669;52.100;5.104;2023-02-01T06:38:38;101815.81;;;23.92;28.71
77543;BME280;66669;52.100;5.104;2023-02-01T06:41:23;101825.41;;;23.91;28.79
77543;BME280;66669;52.100;5.104;2023-02-01T06:43:48;101826.19;;;23.92;28.82
77543;BME280;66669;52.100;5.104;2023-02-01T06:46:14;101819.00;;;23.90;28.67
77543;BME280;66669;52.100;5.104;2023-02-01T06:48:40;101827.00;;;23.92;28.64
77543;BME280;66669;52.100;5.104;2023-02-01T06:51:05;101824.59;;;23.90;28.80
77543;BME280;66669;52.100;5.104;2023-02-01T06:53:30;101829.44;;;23.94;28.69
77543;BME280;66669;52.100;5.104;2023-02-01T06:56:01;101833.88;;;23.95;28.60
77543;BME280;66669;52.100;5.104;2023-02-01T06:58:31;101821.78;;;23.90;28.56
77543;BME280;66669;52.100;5.104;2023-02-01T07:00:57;101825.78;;;23.89;28.70
77543;BME280;66669;52.100;5.104;2023-02-01T07:03:23;101822.16;;;23.89;28.74
77543;BME280;66669;52.100;5.104;2023-02-01T07:05:48;101831.38;;;23.89;28.64
77543;BME280;66669;52.100;5.104;2023-02-01T07:08:14;101826.94;;;23.88;28.67
77543;BME280;66669;52.100;5.104;2023-02-01T07:10:39;101835.72;;;23.87;28.65
77543;BME280;66669;52.100;5.104;2023-02-01T07:13:04;101831.31;;;23.86;28.72
77543;BME280;66669;52.100;5.104;2023-02-01T07:15:30;101832.47;;;23.85;28.58
77543;BME280;66669;52.100;5.104;2023-02-01T07:17:56;101832.94;;;23.87;28.63
77543;BME280;66669;52.100;5.104;2023-02-01T07:20:22;101833.31;;;23.85;28.70
77543;BME280;66669;52.100;5.104;2023-02-01T07:22:47;101825.72;;;23.86;28.75
77543;BME280;66669;52.100;5.104;2023-02-01T07:25:13;101816.13;;;23.87;28.69
77543;BME280;66669;52.100;5.104;2023-02-01T07:27:38;101813.34;;;23.87;28.71
77543;BME280;66669;52.100;5.104;2023-02-01T07:30:04;101809.34;;;23.88;28.68
77543;BME280;66669;52.100;5.104;2023-02-01T07:32:30;101809.34;;;23.88;28.85
77543;BME280;66669;52.100;5.104;2023-02-01T07:34:56;101822.16;;;23.89;28.84
77543;BME280;66669;52.100;5.104;2023-02-01T07:37:22;101822.16;;;23.89;28.83
77543;BME280;66669;52.100;5.104;2023-02-01T07:39:51;101822.16;;;23.89;28.87
77543;BME280;66669;52.100;5.104;2023-02-01T07:42:17;101828.59;;;23.89;28.85
77543;BME280;66669;52.100;5.104;2023-02-01T07:44:43;101818.19;;;23.90;28.80
77543;BME280;66669;52.100;5.104;2023-02-01T07:47:08;101832.19;;;23.90;28.70
77543;BME280;66669;52.100;5.104;2023-02-01T07:49:33;101824.16;;;23.88;28.82
77543;BME280;66669;52.100;5.104;2023-02-01T07:51:59;101829.38;;;23.90;28.89
77543;BME280;66669;52.100;5.104;2023-02-01T07:54:24;101837.41;;;23.92;28.82
77543;BME280;66669;52.100;5.104;2023-02-01T07:56:50;101838.22;;;23.92;28.84
77543;BME280;66669;52.100;5.104;2023-02-01T07:59:15;101837.84;;;23.94;28.89
77543;BME280;66669;52.100;5.104;2023-02-01T08:01:41;101849.59;;;24.03;29.20
77543;BME280;66669;52.100;5.104;2023-02-01T08:04:09;101860.09;;;24.09;29.61
77543;BME280;66669;52.100;5.104;2023-02-01T08:06:36;101856.94;;;24.11;29.39
77543;BME280;66669;52.100;5.104;2023-02-01T08:09:02;101847.22;;;24.05;29.12
77543;BME280;66669;52.100;5.104;2023-02-01T08:11:28;101847.94;;;24.02;29.05
77543;BME280;66669;52.100;5.104;2023-02-01T08:13:54;101855.13;;;23.99;29.14
77543;BME280;66669;52.100;5.104;2023-02-01T08:16:21;101845.94;;;23.99;29.10
77543;BME280;66669;52.100;5.104;2023-02-01T08:18:46;101836.72;;;23.98;29.21
77543;BME280;66669;52.100;5.104;2023-02-01T08:21:17;101837.09;;;23.97;29.22
77543;BME280;66669;52.100;5.104;2023-02-01T08:23:44;101828.69;;;23.97;29.08
77543;BME280;66669;52.100;5.104;2023-02-01T08:26:15;101827.88;;;23.96;29.10
77543;BME280;66669;52.100;5.104;2023-02-01T08:28:43;101818.28;;;23.97;29.12
77543;BME280;66669;52.100;5.104;2023-02-01T08:31:11;101827.50;;;23.98;29.13
77543;BME280;66669;52.100;5.104;2023-02-01T08:33:39;101817.94;;;23.99;29.08
77543;BME280;66669;52.100;5.104;2023-02-01T08:36:06;101826.69;;;23.97;29.11
77543;BME280;66669;52.100;5.104;2023-02-01T08:38:32;101818.28;;;23.97;29.27
77543;BME280;66669;52.100;5.104;2023-02-01T08:40:57;101811.13;;;24.00;29.21
77543;BME280;66669;52.100;5.104;2023-02-01T08:43:22;101814.75;;;24.00;29.11
77543;BME280;66669;52.100;5.104;2023-02-01T08:45:49;101819.59;;;24.03;29.08
77543;BME280;66669;52.100;5.104;2023-02-01T08:48:15;101818.41;;;24.04;29.09
77543;BME280;66669;52.100;5.104;2023-02-01T08:50:40;101825.19;;;24.03;29.08
77543;BME280;66669;52.100;5.104;2023-02-01T08:53:05;101822.00;;;24.05;29.18
77543;BME280;66669;52.100;5.104;2023-02-01T08:55:31;101823.19;;;24.04;29.20
77543;BME280;66669;52.100;5.104;2023-02-01T08:57:56;101823.63;;;24.06;29.24
77543;BME280;66669;52.100;5.104;2023-02-01T09:00:21;101820.41;;;24.04;29.25
77543;BME280;66669;52.100;5.104;2023-02-01T09:02:47;101816.78;;;24.03;29.28
77543;BME280;66669;52.100;5.104;2023-02-01T09:05:12;101817.59;;;24.04;29.17
77543;BME280;66669;52.100;5.104;2023-02-01T09:07:39;101805.59;;;24.03;29.33
77543;BME280;66669;52.100;5.104;2023-02-01T09:10:05;101810.81;;;24.05;29.28
77543;BME280;66669;52.100;5.104;2023-02-01T09:12:32;101809.63;;;24.06;29.20
77543;BME280;66669;52.100;5.104;2023-02-01T09:14:58;101808.81;;;24.05;29.37
77543;BME280;66669;52.100;5.104;2023-02-01T09:17:28;101808.88;;;24.09;29.21
77543;BME280;66669;52.100;5.104;2023-02-01T09:19:53;101794.88;;;24.09;29.23
77543;BME280;66669;52.100;5.104;2023-02-01T09:22:19;101801.28;;;24.09;29.27
77543;BME280;66669;52.100;5.104;2023-02-01T09:24:44;101796.47;;;24.10;29.35
77543;BME280;66669;52.100;5.104;2023-02-01T09:27:10;101802.91;;;24.10;29.37
77543;BME280;66669;52.100;5.104;2023-02-01T09:29:35;101801.72;;;24.11;29.32
77543;BME280;66669;52.100;5.104;2023-02-01T09:32:00;101800.91;;;24.11;29.34
77543;BME280;66669;52.100;5.104;2023-02-01T09:34:26;101814.97;;;24.14;29.35
77543;BME280;66669;52.100;5.104;2023-02-01T09:36:51;101820.19;;;24.16;29.31
77543;BME280;66669;52.100;5.104;2023-02-01T09:39:17;101823.41;;;24.18;29.28
77543;BME280;66669;52.100;5.104;2023-02-01T09:47:15;101826.59;;;24.17;29.40
77543;BME280;66669;52.100;5.104;2023-02-01T09:50:05;101803.38;;;24.16;29.47
77543;BME280;66669;52.100;5.104;2023-02-01T09:52:41;101809.78;;;24.17;29.62
77543;BME280;66669;52.100;5.104;2023-02-01T09:55:14;101814.19;;;24.18;29.61
77543;BME280;66669;52.100;5.104;2023-02-01T09:57:51;101813.38;;;24.17;29.64
77543;BME280;66669;52.100;5.104;2023-02-01T10:00:23;101807.78;;;24.17;29.53
77543;BME280;66669;52.100;5.104;2023-02-01T10:02:50;101805.78;;;24.18;29.58
77543;BME280;66669;52.100;5.104;2023-02-01T10:05:29;101808.22;;;24.19;29.71
77543;BME280;66669;52.100;5.104;2023-02-01T10:08:12;101802.63;;;24.19;29.67
77543;BME280;66669;52.100;5.104;2023-02-01T10:10:47;101804.25;;;24.20;29.68
77543;BME280;66669;52.100;5.104;2023-02-01T10:13:43;101809.44;;;24.22;29.84
77543;BME280;66669;52.100;5.104;2023-02-01T10:19:03;101810.66;;;24.21;29.75
77543;BME280;66669;52.100;5.104;2023-02-01T10:21:46;101809.44;;;24.22;29.81
77543;BME280;66669;52.100;5.104;2023-02-01T10:26:53;101818.31;;;24.24;29.91
77543;BME280;66669;52.100;5.104;2023-02-01T10:29:22;101809.91;;;24.24;30.09
77543;BME280;66669;52.100;5.104;2023-02-01T10:31:51;101819.22;;;24.31;30.40
77543;BME280;66669;52.100;5.104;2023-02-01T10:34:27;101829.78;;;24.42;30.36
77543;BME280;66669;52.100;5.104;2023-02-01T10:36:59;101812.63;;;24.47;30.25
77543;BME280;66669;52.100;5.104;2023-02-01T10:39:25;101821.84;;;24.47;30.25
77543;BME280;66669;52.100;5.104;2023-02-01T10:41:51;101808.63;;;24.48;30.37
77543;BME280;66669;52.100;5.104;2023-02-01T10:44:20;101813.88;;;24.49;29.90
77543;BME280;66669;52.100;5.104;2023-02-01T10:46:48;101803.47;;;24.50;29.96
77543;BME280;66669;52.100;5.104;2023-02-01T10:49:24;101800.22;;;24.48;29.78
77543;BME280;66669;52.100;5.104;2023-02-01T10:52:02;101813.84;;;24.46;29.63
77543;BME280;66669;52.100;5.104;2023-02-01T10:54:34;101802.56;;;24.42;29.74
77543;BME280;66669;52.100;5.104;2023-02-01T10:56:59;101803.00;;;24.44;29.63
77543;BME280;66669;52.100;5.104;2023-02-01T10:59:28;101795.81;;;24.47;29.64
77543;BME280;66669;52.100;5.104;2023-02-01T11:02:00;101786.63;;;24.46;29.54
77543;BME280;66669;52.100;5.104;2023-02-01T11:04:28;101811.03;;;24.46;29.47
77543;BME280;66669;52.100;5.104;2023-02-01T11:07:26;101817.44;;;24.46;29.49
77543;BME280;66669;52.100;5.104;2023-02-01T11:09:53;101798.22;;;24.45;29.59
77543;BME280;66669;52.100;5.104;2023-02-01T11:12:35;101801.44;;;24.47;29.48
77543;BME280;66669;52.100;5.104;2023-02-01T11:15:03;101787.84;;;24.49;29.57
77543;BME280;66669;52.100;5.104;2023-02-01T11:17:34;101792.22;;;24.46;29.56
77543;BME280;66669;52.100;5.104;2023-02-01T11:20:08;101796.97;;;24.42;29.50
77543;BME280;66669;52.100;5.104;2023-02-01T11:22:37;101784.94;;;24.42;29.45
77543;BME280;66669;52.100;5.104;2023-02-01T11:25:09;101778.53;;;24.41;29.45
77543;BME280;66669;52.100;5.104;2023-02-01T11:27:35;101788.16;;;24.40;29.58
77543;BME280;66669;52.100;5.104;2023-02-01T11:30:02;101782.53;;;24.40;29.55
77543;BME280;66669;52.100;5.104;2023-02-01T11:32:29;101792.16;;;24.43;29.49
77543;BME280;66669;52.100;5.104;2023-02-01T11:35:06;101787.31;;;24.39;29.44
77543;BME280;66669;52.100;5.104;2023-02-01T11:37:42;101777.66;;;24.37;29.44
77543;BME280;66669;52.100;5.104;2023-02-01T11:43:00;101791.66;;;24.37;29.48
77543;BME280;66669;52.100;5.104;2023-02-01T11:45:27;101780.47;;;24.37;29.55
77543;BME280;66669;52.100;5.104;2023-02-01T11:47:54;101788.88;;;24.37;29.58
77543;BME280;66669;52.100;5.104;2023-02-01T11:50:28;101788.88;;;24.37;29.50
77543;BME280;66669;52.100;5.104;2023-02-01T11:56:04;101781.72;;;24.39;29.50
77543;BME280;66669;52.100;5.104;2023-02-01T12:06:45;101754.06;;;24.38;29.61
77543;BME280;66669;52.100;5.104;2023-02-01T12:14:56;101743.59;;;24.35;29.56
77543;BME280;66669;52.100;5.104;2023-02-01T12:17:42;101747.59;;;24.34;29.52
77543;BME280;66669;52.100;5.104;2023-02-01T12:25:56;101761.59;;;24.34;29.63
77543;BME280;66669;52.100;5.104;2023-02-01T12:28:45;101753.19;;;24.34;29.47
77543;BME280;66669;52.100;5.104;2023-02-01T12:37:20;101762.00;;;24.32;29.68
77543;BME280;66669;52.100;5.104;2023-02-01T12:42:44;101743.59;;;24.35;29.67
77543;BME280;66669;52.100;5.104;2023-02-01T12:45:21;101748.03;;;24.36;29.60
77543;BME280;66669;52.100;5.104;2023-02-01T12:47:55;101764.47;;;24.37;29.48
77543;BME280;66669;52.100;5.104;2023-02-01T12:50:32;101754.44;;;24.36;29.56
77543;BME280;66669;52.100;5.104;2023-02-01T12:55:52;101756.50;;;24.39;29.65
77543;BME280;66669;52.100;5.104;2023-02-01T12:58:25;101754.53;;;24.40;29.45
77543;BME280;66669;52.100;5.104;2023-02-01T13:01:20;101756.88;;;24.38;29.48
77543;BME280;66669;52.100;5.104;2023-02-01T13:04:03;101742.88;;;24.38;29.51
77543;BME280;66669;52.100;5.104;2023-02-01T13:06:37;101741.31;;;24.41;29.67
77543;BME280;66669;52.100;5.104;2023-02-01T13:09:10;101735.72;;;24.41;29.61
77543;BME280;66669;52.100;5.104;2023-02-01T13:11:42;101744.91;;;24.41;29.49
77543;BME280;66669;52.100;5.104;2023-02-01T13:17:14;101749.63;;;24.37;29.56
77543;BME280;66669;52.100;5.104;2023-02-01T13:19:56;101751.59;;;24.33;29.71
77543;BME280;66669;52.100;5.104;2023-02-01T13:22:30;101756.38;;;24.32;29.60
77543;BME280;66669;52.100;5.104;2023-02-01T13:25:12;101749.53;;;24.30;29.55
77543;BME280;66669;52.100;5.104;2023-02-01T13:27:39;101749.13;;;24.28;29.75
77543;BME280;66669;52.100;5.104;2023-02-01T13:35:52;101759.47;;;24.24;29.72
77543;BME280;66669;52.100;5.104;2023-02-01T13:41:39;101762.31;;;24.27;29.70
77543;BME280;66669;52.100;5.104;2023-02-01T13:43:39;101757.47;;;24.24;29.68
77543;BME280;66669;52.100;5.104;2023-02-01T13:46:09;101765.06;;;24.24;29.66
77543;BME280;66669;52.100;5.104;2023-02-01T13:48:51;101741.88;;;24.23;29.82
77543;BME280;66669;52.100;5.104;2023-02-01T13:51:33;101745.53;;;24.27;29.73
77543;BME280;66669;52.100;5.104;2023-02-01T13:53:59;101758.28;;;24.25;29.78
77543;BME280;66669;52.100;5.104;2023-02-01T13:56:25;101751.44;;;24.22;29.78
77543;BME280;66669;52.100;5.104;2023-02-01T13:58:51;101755.44;;;24.21;29.86
77543;BME280;66669;52.100;5.104;2023-02-01T14:03:52;101765.38;;;24.19;29.94
77543;BME280;66669;52.100;5.104;2023-02-01T14:06:38;101765.06;;;24.24;29.93
77543;BME280;66669;52.100;5.104;2023-02-01T14:11:36;101759.88;;;24.26;29.95
77543;BME280;66669;52.100;5.104;2023-02-01T14:21:57;101756.63;;;24.20;29.84
77543;BME280;66669;52.100;5.104;2023-02-01T14:24:29;101769.81;;;24.20;29.99
77543;BME280;66669;52.100;5.104;2023-02-01T14:27:17;101755.81;;;24.20;29.99
77543;BME280;66669;52.100;5.104;2023-02-01T14:29:42;101770.19;;;24.18;30.06
77543;BME280;66669;52.100;5.104;2023-02-01T14:32:18;101757.81;;;24.19;30.00
77543;BME280;66669;52.100;5.104;2023-02-01T14:55:51;101770.66;;;24.50;29.67
77543;BME280;66669;52.100;5.104;2023-02-01T15:01:13;101765.59;;;24.63;29.46
77543;BME280;66669;52.100;5.104;2023-02-01T15:03:45;101778.06;;;24.69;29.65
77543;BME280;66669;52.100;5.104;2023-02-01T15:06:26;101784.16;;;24.75;29.47